createdAt,value
2018-11-05T00:01:23.438Z,26.23
2018-11-05T00:03:50.906Z,29.50
2018-11-05T00:06:18.391Z,30.00
2018-11-05T00:08:46.613Z,24.47
2018-11-05T00:11:14.103Z,27.47
2018-11-05T00:13:41.569Z,29.60
2018-11-05T00:16:09.132Z,28.60
2018-11-05T00:18:36.592Z,28.20
2018-11-05T00:21:04.153Z,25.57
2018-11-05T00:23:31.624Z,22.93
2018-11-05T00:25:59.080Z,30.00
2018-11-05T00:28:26.554Z,25.87
2018-11-05T00:30:54.108Z,28.97
2018-11-05T00:33:21.576Z,28.13
2018-11-05T00:35:49.031Z,30.33
2018-11-05T00:38:16.507Z,22.00
2018-11-05T00:40:43.995Z,27.27
2018-11-05T00:43:12.229Z,20.67
2018-11-05T00:45:39.709Z,28.67
2018-11-05T00:48:07.157Z,25.03
2018-11-05T00:50:35.376Z,29.03
2018-11-05T00:53:04.545Z,25.53
2018-11-05T00:55:31.998Z,29.27
2018-11-05T00:57:59.482Z,29.23
2018-11-05T01:00:26.939Z,23.83
2018-11-05T01:02:54.411Z,24.23
2018-11-05T01:05:22.657Z,26.50
2018-11-05T01:07:50.120Z,25.20
2018-11-05T01:10:17.599Z,22.93
2018-11-05T01:12:45.059Z,27.20
2018-11-05T01:15:12.614Z,28.93
2018-11-05T01:17:40.072Z,23.53
2018-11-05T01:20:07.652Z,27.17
2018-11-05T01:22:35.213Z,25.63
2018-11-05T01:25:05.095Z,22.97
2018-11-05T01:27:32.594Z,26.03
2018-11-05T01:30:00.062Z,33.37
2018-11-05T01:32:27.525Z,26.10
2018-11-05T01:34:54.986Z,28.00
2018-11-05T01:37:23.983Z,22.50
2018-11-05T01:39:51.419Z,26.63
2018-11-05T01:42:18.899Z,23.97
2018-11-05T01:44:47.873Z,26.50
2018-11-05T01:47:15.357Z,23.33
2018-11-05T01:49:42.922Z,24.40
2018-11-05T01:52:11.196Z,24.60
2018-11-05T01:54:38.646Z,25.53
2018-11-05T01:57:06.228Z,23.67
2018-11-05T01:59:33.795Z,24.30
2018-11-05T02:02:01.258Z,26.37
2018-11-05T02:04:28.732Z,24.03
2018-11-05T02:06:57.688Z,22.60
2018-11-05T02:09:25.147Z,21.20
2018-11-05T02:11:52.712Z,26.63
2018-11-05T02:14:20.198Z,27.10
2018-11-05T02:16:47.662Z,21.10
2018-11-05T02:19:15.130Z,23.87
2018-11-05T02:21:42.579Z,20.47
2018-11-05T02:24:10.152Z,22.23
2018-11-05T02:26:37.606Z,25.03
2018-11-05T02:29:05.055Z,23.03
2018-11-05T02:31:32.528Z,24.20
2018-11-05T02:34:00.089Z,20.57
2018-11-05T02:36:27.556Z,23.63
2018-11-05T02:38:55.028Z,20.23
2018-11-05T02:41:24.001Z,20.00
2018-11-05T02:43:51.477Z,23.27
2018-11-05T02:46:19.234Z,24.60
2018-11-05T02:48:46.826Z,20.63
2018-11-05T02:51:14.366Z,22.83
2018-11-05T02:53:41.932Z,21.53
2018-11-05T02:56:09.387Z,20.60
2018-11-05T02:58:36.849Z,24.37
2018-11-05T03:01:04.419Z,22.50
2018-11-05T03:03:31.988Z,23.97
2018-11-05T03:05:59.442Z,20.77
2018-11-05T03:08:27.015Z,22.93
2018-11-05T03:10:54.583Z,19.37
2018-11-05T03:13:22.060Z,21.63
2018-11-05T03:15:49.529Z,24.20
2018-11-05T03:18:16.975Z,23.07
2018-11-05T03:20:44.444Z,22.70
2018-11-05T03:23:11.892Z,23.93
2018-11-05T03:25:39.364Z,20.43
2018-11-05T03:28:06.908Z,23.00
2018-11-05T03:30:34.359Z,24.37
2018-11-05T03:33:01.831Z,20.93
2018-11-05T03:35:29.396Z,23.77
2018-11-05T03:37:56.868Z,19.83
2018-11-05T03:40:24.328Z,22.73
2018-11-05T03:42:51.795Z,25.00
2018-11-05T03:45:19.348Z,24.90
2018-11-05T03:47:46.813Z,20.43
2018-11-05T03:50:14.271Z,18.17
2018-11-05T03:52:42.084Z,19.30
2018-11-05T03:55:10.308Z,24.77
2018-11-05T03:57:37.771Z,24.47
2018-11-05T04:00:05.244Z,23.97
2018-11-05T04:02:32.807Z,25.10
2018-11-05T04:05:00.386Z,19.80
2018-11-05T04:07:27.832Z,19.93
2018-11-05T04:09:55.399Z,19.93
2018-11-05T04:12:22.869Z,19.67
2018-11-05T04:14:50.343Z,20.73
2018-11-05T04:17:17.796Z,25.30
2018-11-05T04:19:46.775Z,20.27
2018-11-05T04:22:14.346Z,23.07
2018-11-05T04:24:41.910Z,21.83
2018-11-05T04:27:09.381Z,20.20
2018-11-05T04:29:36.931Z,20.47
2018-11-05T04:32:04.383Z,21.07
2018-11-05T04:34:31.861Z,20.95
2018-11-05T04:36:59.327Z,20.80
2018-11-05T04:39:26.886Z,18.47
2018-11-05T04:41:54.338Z,22.10
2018-11-05T04:44:21.807Z,16.53
2018-11-05T04:46:49.368Z,20.37
2018-11-05T04:49:16.933Z,18.33
2018-11-05T04:51:44.384Z,20.73
2018-11-05T04:54:12.163Z,17.87
2018-11-05T04:56:39.633Z,17.30
2018-11-05T04:59:07.105Z,20.33
2018-11-05T05:01:34.568Z,20.47
2018-11-05T05:04:02.044Z,21.67
2018-11-05T05:06:30.291Z,20.07
2018-11-05T05:08:57.856Z,18.67
2018-11-05T05:11:25.322Z,18.97
2018-11-05T05:13:52.781Z,18.43
2018-11-05T05:16:20.465Z,17.70
2018-11-05T05:18:47.916Z,18.60
2018-11-05T05:21:15.463Z,17.90
2018-11-05T05:23:42.930Z,17.10
2018-11-05T05:26:10.399Z,18.10
2018-11-05T05:28:37.962Z,21.10
2018-11-05T05:31:05.425Z,20.03
2018-11-05T05:33:33.029Z,20.60
2018-11-05T05:36:00.547Z,17.40
2018-11-05T05:38:28.012Z,19.97
2018-11-05T05:40:55.590Z,17.37
2018-11-05T05:43:22.946Z,19.77
2018-11-05T05:45:50.520Z,20.17
2018-11-05T05:48:18.753Z,17.37
2018-11-05T05:50:46.979Z,17.23
2018-11-05T05:53:14.445Z,15.73
2018-11-05T05:55:41.905Z,16.37
2018-11-05T05:58:10.131Z,18.13
2018-11-05T06:00:37.590Z,18.07
2018-11-05T06:03:05.094Z,18.00
2018-11-05T06:05:32.556Z,17.50
2018-11-05T06:08:00.016Z,16.87
2018-11-05T06:10:27.480Z,17.27
2018-11-05T06:12:54.947Z,17.43
2018-11-05T06:15:22.403Z,19.03
2018-11-05T06:17:49.969Z,13.83
2018-11-05T06:20:18.243Z,16.62
2018-11-05T06:22:45.696Z,19.37
2018-11-05T06:25:13.148Z,17.30
2018-11-05T06:27:40.632Z,16.10
2018-11-05T06:30:08.860Z,14.80
2018-11-05T06:32:36.317Z,16.23
2018-11-05T06:35:03.799Z,20.07
2018-11-05T06:37:31.251Z,17.77
2018-11-05T06:39:58.754Z,19.53
2018-11-05T06:42:26.219Z,13.83
2018-11-05T06:44:53.860Z,15.00
2018-11-05T06:47:21.240Z,16.53
2018-11-05T06:49:48.712Z,18.40
2018-11-05T06:52:16.171Z,17.23
2018-11-05T06:54:44.410Z,18.43
2018-11-05T06:57:11.905Z,16.60
2018-11-05T06:59:39.375Z,18.73
2018-11-05T07:02:06.840Z,18.93
2018-11-05T07:04:34.296Z,13.83
2018-11-05T07:07:01.857Z,13.80
2018-11-05T07:09:29.423Z,15.70
2018-11-05T07:11:56.983Z,17.67
2018-11-05T07:14:24.560Z,16.10
2018-11-05T07:16:52.039Z,17.97
2018-11-05T07:19:19.653Z,17.90
2018-11-05T07:21:47.739Z,13.23
2018-11-05T07:24:15.206Z,14.83
2018-11-05T07:26:42.658Z,17.53
2018-11-05T07:29:10.147Z,20.57
2018-11-05T07:31:38.372Z,17.63
2018-11-05T07:34:06.124Z,21.63
2018-11-05T07:36:33.647Z,16.47
2018-11-05T07:39:01.105Z,18.40
2018-11-05T07:41:28.563Z,17.13
2018-11-05T07:43:56.024Z,20.33
2018-11-05T07:46:23.575Z,14.07
2018-11-05T07:48:51.037Z,15.90
2018-11-05T07:51:18.499Z,18.03
2018-11-05T07:53:45.992Z,16.00
2018-11-05T07:56:13.611Z,19.13
2018-11-05T07:58:41.015Z,18.50
2018-11-05T08:01:08.572Z,18.27
2018-11-05T08:03:36.023Z,17.60
2018-11-05T08:06:04.603Z,19.92
2018-11-05T08:08:32.143Z,18.07
2018-11-05T08:10:59.531Z,20.13
2018-11-05T08:13:27.011Z,17.50
2018-11-05T08:15:54.475Z,19.37
2018-11-05T08:18:21.934Z,17.17
2018-11-05T08:20:49.405Z,23.30
2018-11-05T08:23:17.621Z,21.57
2018-11-05T08:25:45.742Z,17.03
2018-11-05T08:28:13.317Z,19.70
2018-11-05T08:30:41.547Z,18.10
2018-11-05T08:33:09.013Z,17.93
2018-11-05T08:35:36.479Z,17.77
2018-11-05T08:38:03.979Z,19.13
2018-11-05T08:40:31.447Z,20.10
2018-11-05T08:42:58.908Z,19.40
2018-11-05T08:45:26.380Z,22.57
2018-11-05T08:47:53.919Z,18.30
2018-11-05T08:50:21.556Z,17.97
2018-11-05T08:52:49.060Z,19.13
2018-11-05T08:55:16.615Z,17.07
2018-11-05T08:57:44.130Z,19.00
2018-11-05T09:00:11.561Z,20.33
2018-11-05T09:02:39.102Z,19.70
2018-11-05T09:05:06.599Z,18.67
2018-11-05T09:07:34.034Z,20.20
2018-11-05T09:10:01.613Z,19.97
2018-11-05T09:12:29.059Z,17.20
2018-11-05T09:14:56.583Z,22.60
2018-11-05T09:17:24.052Z,22.87
2018-11-05T09:19:51.507Z,19.17
2018-11-05T09:22:18.976Z,23.40
2018-11-05T09:24:46.470Z,21.07
2018-11-05T09:27:15.443Z,23.37
2018-11-05T09:29:43.068Z,22.23
2018-11-05T09:32:11.299Z,21.87
2018-11-05T09:34:38.878Z,21.63
2018-11-05T09:37:06.339Z,23.37
2018-11-05T09:39:33.791Z,19.23
2018-11-05T09:42:01.361Z,21.13
2018-11-05T09:44:28.919Z,23.63
2018-11-05T09:46:56.392Z,21.97
2018-11-05T09:49:23.960Z,20.60
2018-11-05T09:51:51.425Z,21.40
2018-11-05T09:54:18.971Z,21.42
2018-11-05T09:56:46.548Z,24.10
2018-11-05T09:59:14.015Z,20.40
2018-11-05T10:01:41.479Z,23.40
2018-11-05T10:04:08.971Z,23.47
2018-11-05T10:06:37.173Z,21.93
2018-11-05T10:09:04.685Z,22.03
2018-11-05T10:11:32.199Z,21.80
2018-11-05T10:13:59.671Z,18.67
2018-11-05T10:16:27.210Z,21.67
2018-11-05T10:18:54.621Z,23.50
2018-11-05T10:21:22.076Z,18.87
2018-11-05T10:23:49.539Z,23.57
2018-11-05T10:26:17.035Z,22.20
2018-11-05T10:28:44.470Z,24.17
2018-11-05T10:31:11.934Z,21.77
2018-11-05T10:33:39.503Z,20.87
2018-11-05T10:36:07.780Z,23.03
2018-11-05T10:38:35.284Z,20.40
2018-11-05T10:41:04.404Z,21.50
2018-11-05T10:43:31.856Z,25.53
2018-11-05T10:45:59.397Z,22.67
2018-11-05T10:48:27.636Z,23.03
2018-11-05T10:50:55.135Z,22.90
2018-11-05T10:53:23.393Z,23.20
2018-11-05T10:55:50.839Z,24.23
2018-11-05T10:58:18.353Z,24.20
2018-11-05T11:00:45.776Z,20.03
2018-11-05T11:03:13.235Z,26.67
2018-11-05T11:05:40.700Z,26.07
2018-11-05T11:08:08.250Z,24.57
2018-11-05T11:10:35.702Z,25.60
2018-11-05T11:13:04.712Z,30.60
2018-11-05T11:15:32.185Z,26.70
2018-11-05T11:18:00.418Z,26.47
2018-11-05T11:20:27.913Z,33.17
2018-11-05T11:22:55.378Z,32.77
2018-11-05T11:25:23.609Z,27.07
2018-11-05T11:27:51.275Z,29.87
2018-11-05T11:30:18.604Z,27.97
2018-11-05T11:32:46.049Z,30.33
2018-11-05T11:35:13.601Z,27.73
2018-11-05T11:37:41.091Z,27.93
2018-11-05T11:40:09.344Z,26.23
2018-11-05T11:42:36.908Z,28.13
2018-11-05T11:45:04.622Z,32.77
2018-11-05T11:47:32.711Z,34.27
2018-11-05T11:50:00.217Z,27.73
2018-11-05T11:52:27.732Z,38.10
2018-11-05T11:54:55.246Z,32.37
2018-11-05T11:57:22.700Z,34.43
2018-11-05T11:59:50.172Z,29.43
2018-11-05T12:02:17.839Z,31.43
2018-11-05T12:04:45.211Z,36.47
2018-11-05T12:07:12.714Z,29.00
2018-11-05T12:09:40.172Z,36.03
2018-11-05T12:12:07.976Z,35.37
2018-11-05T12:14:35.537Z,34.97
2018-11-05T12:17:04.429Z,45.07
2018-11-05T12:19:31.914Z,36.40
2018-11-05T12:21:59.375Z,33.20
2018-11-05T12:24:26.941Z,39.40
2018-11-05T12:26:55.903Z,41.67
2018-11-05T12:29:23.359Z,39.00
2018-11-05T12:31:50.815Z,35.50
2018-11-05T12:34:18.271Z,36.43
2018-11-05T12:36:45.784Z,40.33
2018-11-05T12:39:13.973Z,42.90
2018-11-05T12:41:41.430Z,44.00
2018-11-05T12:44:08.980Z,41.77
2018-11-05T12:46:36.443Z,38.97
2018-11-05T12:49:03.900Z,41.27
2018-11-05T12:51:31.359Z,44.10
2018-11-05T12:53:58.829Z,41.80
2018-11-05T12:56:26.282Z,41.73
2018-11-05T12:58:53.764Z,44.50
2018-11-05T13:01:21.230Z,38.07
2018-11-05T13:03:48.687Z,40.20
2018-11-05T13:06:16.240Z,45.43
2018-11-05T13:08:43.806Z,41.50
2018-11-05T13:11:11.260Z,42.10
2018-11-05T13:13:38.727Z,42.37
2018-11-05T13:16:06.201Z,44.20
2018-11-05T13:18:33.760Z,39.03
2018-11-05T13:21:01.224Z,45.13
2018-11-05T13:23:28.691Z,44.00
2018-11-05T13:25:57.655Z,39.80
2018-11-05T13:28:25.314Z,43.13
2018-11-05T13:30:52.801Z,40.73
2018-11-05T13:33:20.260Z,42.33
2018-11-05T13:35:47.833Z,43.23
2018-11-05T13:38:15.874Z,42.67
2018-11-05T13:40:42.785Z,41.20
2018-11-05T13:43:11.035Z,43.77
2018-11-05T13:45:38.712Z,46.13
2018-11-05T13:48:06.366Z,43.67
2018-11-05T13:50:33.430Z,38.87
2018-11-05T13:53:00.931Z,37.10
2018-11-05T13:55:28.401Z,44.13
2018-11-05T13:57:55.868Z,40.53
2018-11-05T14:00:23.673Z,41.47
2018-11-05T14:02:51.144Z,34.90
2018-11-05T14:05:19.365Z,40.00
2018-11-05T14:07:46.869Z,41.97
2018-11-05T14:10:14.343Z,37.03
2018-11-05T14:12:41.931Z,38.40
2018-11-05T14:15:09.389Z,38.10
2018-11-05T14:17:37.619Z,39.93
2018-11-05T14:20:05.088Z,36.03
2018-11-05T14:22:32.561Z,35.97
2018-11-05T14:25:00.142Z,36.07
2018-11-05T14:27:27.795Z,46.37
2018-11-05T14:29:55.496Z,39.77
2018-11-05T14:32:22.639Z,41.63
2018-11-05T14:34:50.863Z,35.13
2018-11-05T14:37:18.321Z,47.03
2018-11-05T14:39:45.793Z,45.27
2018-11-05T14:42:13.251Z,38.97
2018-11-05T14:44:40.717Z,45.37
2018-11-05T14:47:08.216Z,32.40
2018-11-05T14:49:35.772Z,41.23
2018-11-05T14:52:04.763Z,38.60
2018-11-05T14:54:32.238Z,41.60
2018-11-05T14:56:59.714Z,37.37
2018-11-05T14:59:27.252Z,38.50
2018-11-05T15:01:54.725Z,39.33
2018-11-05T15:04:22.193Z,39.63
2018-11-05T15:06:49.660Z,37.30
2018-11-05T15:09:17.419Z,39.57
2018-11-05T15:11:44.868Z,37.07
2018-11-05T15:14:12.449Z,35.17
2018-11-05T15:16:39.929Z,41.97
2018-11-05T15:19:08.414Z,41.97
2018-11-05T15:21:35.655Z,41.27
2018-11-05T15:24:04.627Z,39.03
2018-11-05T15:26:32.230Z,40.53
2018-11-05T15:28:59.664Z,32.43
2018-11-05T15:31:27.141Z,40.73
2018-11-05T15:33:55.468Z,41.77
2018-11-05T15:36:24.407Z,41.70
2018-11-05T15:38:51.889Z,42.27
2018-11-05T15:41:19.343Z,34.13
2018-11-05T15:43:46.799Z,44.07
2018-11-05T15:46:15.803Z,42.50
2018-11-05T15:48:43.268Z,38.10
2018-11-05T15:51:10.983Z,38.50
2018-11-05T15:53:38.477Z,40.80
2018-11-05T15:56:05.845Z,42.37
2018-11-05T15:58:33.304Z,38.53
2018-11-05T16:01:00.768Z,40.80
2018-11-05T16:03:28.243Z,37.03
2018-11-05T16:05:55.795Z,37.53
2018-11-05T16:08:23.351Z,32.70
2018-11-05T16:10:50.926Z,37.47
2018-11-05T16:13:18.391Z,33.40
2018-11-05T16:15:45.864Z,36.97
2018-11-05T16:18:14.100Z,30.03
2018-11-05T16:20:41.589Z,43.03
2018-11-05T16:23:09.057Z,31.27
2018-11-05T16:25:36.661Z,32.47
2018-11-05T16:28:04.179Z,43.27
2018-11-05T16:30:31.697Z,39.47
2018-11-05T16:32:59.915Z,39.13
2018-11-05T16:35:27.385Z,36.07
2018-11-05T16:37:54.835Z,38.73
2018-11-05T16:40:22.291Z,40.90
2018-11-05T16:42:49.758Z,38.87
2018-11-05T16:45:17.217Z,37.47
2018-11-05T16:47:44.688Z,42.03
2018-11-05T16:50:12.167Z,37.05
2018-11-05T16:52:39.715Z,36.13
2018-11-05T16:55:07.203Z,38.93
2018-11-05T16:57:34.728Z,37.90
2018-11-05T17:00:02.133Z,35.23
2018-11-05T17:02:30.568Z,36.87
2018-11-05T17:04:57.935Z,35.83
2018-11-05T17:07:26.156Z,39.70
2018-11-05T17:09:54.415Z,41.37
2018-11-05T17:12:21.888Z,36.53
2018-11-05T17:14:50.156Z,39.67
2018-11-05T17:17:19.138Z,45.20
2018-11-05T17:19:46.589Z,39.63
2018-11-05T17:22:14.070Z,47.23
2018-11-05T17:24:41.529Z,35.03
2018-11-05T17:27:08.993Z,40.00
2018-11-05T17:29:37.223Z,42.53
2018-11-05T17:32:04.735Z,41.37
2018-11-05T17:34:32.254Z,40.97
2018-11-05T17:36:59.711Z,43.37
2018-11-05T17:39:27.216Z,38.70
2018-11-05T17:41:54.688Z,41.37
2018-11-05T17:44:22.150Z,36.97
2018-11-05T17:46:49.709Z,44.97
2018-11-05T17:49:17.175Z,38.10
2018-11-05T17:51:44.636Z,39.20
2018-11-05T17:54:12.119Z,38.97
2018-11-05T17:56:40.376Z,39.27
2018-11-05T17:59:07.836Z,37.13
2018-11-05T18:01:35.314Z,37.17
2018-11-05T18:04:03.724Z,40.13
2018-11-05T18:06:32.664Z,31.07
2018-11-05T18:09:00.286Z,39.73
2018-11-05T18:11:28.488Z,39.17
2018-11-05T18:13:55.948Z,42.73
2018-11-05T18:16:23.403Z,43.67
2018-11-05T18:18:50.885Z,35.10
2018-11-05T18:21:18.344Z,37.40
2018-11-05T18:23:45.823Z,40.17
2018-11-05T18:26:13.392Z,31.80
2018-11-05T18:28:40.857Z,40.27
2018-11-05T18:31:09.928Z,31.93
2018-11-05T18:33:37.313Z,33.53
2018-11-05T18:36:04.877Z,30.93
2018-11-05T18:38:32.345Z,37.20
2018-11-05T18:40:59.800Z,37.40
2018-11-05T18:43:27.274Z,31.97
2018-11-05T18:45:54.841Z,35.67
2018-11-05T18:48:22.299Z,33.20
2018-11-05T18:50:50.571Z,32.73
2018-11-05T18:53:18.045Z,31.03
2018-11-05T18:55:45.604Z,37.53
2018-11-05T18:58:13.160Z,35.80
2018-11-05T19:00:40.627Z,29.70
2018-11-05T19:03:08.219Z,31.60
2018-11-05T19:05:35.632Z,32.73
2018-11-05T19:08:04.638Z,28.62
2018-11-05T19:10:32.104Z,30.93
2018-11-05T19:12:59.573Z,27.33
2018-11-05T19:15:27.047Z,29.13
2018-11-05T19:17:54.609Z,32.90
2018-11-05T19:20:22.071Z,30.83
2018-11-05T19:22:51.182Z,32.17
2018-11-05T19:25:18.536Z,30.13
2018-11-05T19:27:46.782Z,27.83
2018-11-05T19:30:14.277Z,26.30
2018-11-05T19:32:41.708Z,33.30
2018-11-05T19:35:09.182Z,31.70
2018-11-05T19:37:36.649Z,31.07
2018-11-05T19:40:04.104Z,28.07
2018-11-05T19:42:31.864Z,30.47
2018-11-05T19:44:59.235Z,27.23
2018-11-05T19:47:26.692Z,31.47
2018-11-05T19:49:54.257Z,28.57
2018-11-05T19:52:21.821Z,29.73
2018-11-05T19:54:49.388Z,30.53
2018-11-05T19:57:16.852Z,25.23
2018-11-05T19:59:44.299Z,31.03
2018-11-05T20:02:12.065Z,30.73
2018-11-05T20:04:39.543Z,27.77
2018-11-05T20:07:07.116Z,30.50
2018-11-05T20:09:34.581Z,24.03
2018-11-05T20:12:02.039Z,28.27
2018-11-05T20:14:29.516Z,27.43
2018-11-05T20:16:57.167Z,25.97
2018-11-05T20:19:24.621Z,29.70
2018-11-05T20:21:53.624Z,30.17
2018-11-05T20:24:21.941Z,33.57
2018-11-05T20:26:49.419Z,27.93
2018-11-05T20:29:16.881Z,26.27
2018-11-05T20:31:44.612Z,29.60
2018-11-05T20:34:12.478Z,30.83
2018-11-05T20:36:39.592Z,25.07
2018-11-05T20:39:07.051Z,26.93
2018-11-05T20:41:34.516Z,26.27
2018-11-05T20:44:01.980Z,23.70
2018-11-05T20:46:29.603Z,29.08
2018-11-05T20:48:57.030Z,29.70
2018-11-05T20:51:24.513Z,28.67
2018-11-05T20:53:52.777Z,26.93
2018-11-05T20:56:20.205Z,29.43
2018-11-05T20:58:47.706Z,28.43
2018-11-05T21:01:15.175Z,24.30
2018-11-05T21:03:42.647Z,28.70
2018-11-05T21:06:10.719Z,31.70
2018-11-05T21:08:38.180Z,28.63
2018-11-05T21:11:05.671Z,28.83
2018-11-05T21:13:33.162Z,26.63
2018-11-05T21:16:00.648Z,28.50
2018-11-05T21:18:28.115Z,30.03
2018-11-05T21:20:57.170Z,28.80
2018-11-05T21:23:24.873Z,24.67
2018-11-05T21:25:52.331Z,27.30
2018-11-05T21:28:19.783Z,29.43
2018-11-05T21:30:47.258Z,27.13
2018-11-05T21:33:14.828Z,31.83
2018-11-05T21:35:42.362Z,26.77
2018-11-05T21:38:09.833Z,27.90
2018-11-05T21:40:37.343Z,26.93
2018-11-05T21:43:04.874Z,31.87
2018-11-05T21:45:32.460Z,27.47
2018-11-05T21:47:59.913Z,28.03
2018-11-05T21:50:28.156Z,22.63
2018-11-05T21:52:55.618Z,26.40
2018-11-05T21:55:23.104Z,26.10
2018-11-05T21:57:50.567Z,24.83
2018-11-05T22:00:18.838Z,23.33
2018-11-05T22:02:46.312Z,30.13
2018-11-05T22:05:13.771Z,25.67
2018-11-05T22:07:41.231Z,28.30
2018-11-05T22:10:08.698Z,26.23
2018-11-05T22:12:36.262Z,28.07
2018-11-05T22:15:03.717Z,24.67
2018-11-05T22:17:31.197Z,27.37
2018-11-05T22:19:58.667Z,22.10
2018-11-05T22:22:26.957Z,28.77
2018-11-05T22:24:54.400Z,29.00
2018-11-05T22:27:21.952Z,26.87
2018-11-05T22:29:49.573Z,27.50
2018-11-05T22:32:17.020Z,23.53
2018-11-05T22:34:44.488Z,31.30
2018-11-05T22:37:11.996Z,22.90
2018-11-05T22:39:40.181Z,22.47
2018-11-05T22:42:07.658Z,27.23
2018-11-05T22:44:35.113Z,30.37
2018-11-05T22:47:02.612Z,25.97
2018-11-05T22:49:30.133Z,26.87
2018-11-05T22:51:57.587Z,24.17
2018-11-05T22:54:25.047Z,25.97
2018-11-05T22:56:52.618Z,22.40
2018-11-05T22:59:20.137Z,27.57
2018-11-05T23:01:47.592Z,23.17
2018-11-05T23:04:15.105Z,23.80
2018-11-05T23:06:42.567Z,25.53
2018-11-05T23:09:10.040Z,27.70
2018-11-05T23:11:37.593Z,21.07
2018-11-05T23:14:05.062Z,24.27
2018-11-05T23:16:32.625Z,22.40
2018-11-05T23:19:00.083Z,24.03
2018-11-05T23:21:27.554Z,24.07
2018-11-05T23:23:55.108Z,23.80
2018-11-05T23:26:22.570Z,25.20
2018-11-05T23:28:50.039Z,24.43
2018-11-05T23:31:17.513Z,27.53
2018-11-05T23:33:45.053Z,23.90
2018-11-05T23:36:12.521Z,23.20
2018-11-05T23:38:39.984Z,22.90
2018-11-05T23:41:07.449Z,22.10
2018-11-05T23:43:35.737Z,25.43
2018-11-05T23:46:04.393Z,22.30
2018-11-05T23:48:31.883Z,20.13
2018-11-05T23:50:59.341Z,23.27
2018-11-05T23:53:26.902Z,20.90
2018-11-05T23:55:54.375Z,24.27
2018-11-05T23:58:21.835Z,20.43
